createdAt,value
2023-02-16T00:00:21.182Z,101750.41
2023-02-16T00:02:53.045Z,101749.44
2023-02-16T00:05:24.904Z,101746.25
2023-02-16T00:07:56.760Z,101744.03
2023-02-16T00:10:28.317Z,101750.97
2023-02-16T00:13:18.634Z,101749.28
2023-02-16T00:15:50.177Z,101751.09
2023-02-16T00:18:21.694Z,101751.09
2023-02-16T00:20:53.169Z,101749.44
2023-02-16T00:23:24.977Z,101749.28
2023-02-16T00:25:56.461Z,101742.50
2023-02-16T00:28:28.290Z,101743.63
2023-02-16T00:30:59.911Z,101754.81
2023-02-16T00:33:31.826Z,101744.59
2023-02-16T00:36:03.320Z,101748.31
2023-02-16T00:38:35.139Z,101752.06
2023-02-16T00:41:26.584Z,101747.63
2023-02-16T00:43:58.453Z,101758.00
2023-02-16T00:46:29.993Z,101751.91
2023-02-16T00:49:01.979Z,101746.94
2023-02-16T00:51:33.468Z,101744.56
2023-02-16T00:54:05.288Z,101750.22
2023-02-16T00:56:36.795Z,101753.09
2023-02-16T00:59:08.667Z,101749.78
2023-02-16T01:01:40.198Z,101749.66
2023-02-16T01:04:12.144Z,101749.91
2023-02-16T01:07:02.410Z,101751.72
2023-02-16T01:09:52.935Z,101741.34
2023-02-16T01:12:24.497Z,101746.03
2023-02-16T01:14:56.268Z,101745.91
2023-02-16T01:17:27.765Z,101740.22
2023-02-16T01:19:59.570Z,101741.06
2023-02-16T01:22:33.440Z,101740.09
2023-02-16T01:25:05.298Z,101742.72
2023-02-16T01:27:37.168Z,101743.00
2023-02-16T01:30:08.711Z,101746.84
2023-02-16T01:32:40.222Z,101747.94
2023-02-16T01:35:11.739Z,101742.41
2023-02-16T01:37:43.339Z,101740.16
2023-02-16T01:40:14.928Z,101744.97
2023-02-16T01:42:46.401Z,101736.97
2023-02-16T01:45:17.917Z,101731.28
2023-02-16T01:47:49.521Z,101725.34
2023-02-16T01:50:21.053Z,101732.78
2023-02-16T01:52:52.548Z,101729.72
2023-02-16T01:55:24.311Z,101726.41
2023-02-16T01:57:56.109Z,101722.13
2023-02-16T02:00:27.619Z,101723.78
2023-02-16T02:03:19.098Z,101727.38
2023-02-16T02:05:50.610Z,101725.44
2023-02-16T02:08:22.556Z,101721.00
2023-02-16T02:10:54.041Z,101718.38
2023-02-16T02:13:25.596Z,101717.56
2023-02-16T02:15:57.138Z,101712.31
2023-02-16T02:18:28.912Z,101718.25
2023-02-16T02:21:19.274Z,101708.03
2023-02-16T02:23:51.086Z,101713.28
2023-02-16T02:26:22.567Z,101713.28
2023-02-16T02:28:54.399Z,101705.78
2023-02-16T02:31:25.942Z,101711.19
2023-02-16T02:33:57.791Z,101711.88
2023-02-16T02:36:29.291Z,101658.13
2023-02-16T02:39:01.110Z,101701.63
2023-02-16T02:41:51.350Z,101695.81
2023-02-16T02:44:23.199Z,101695.00
2023-02-16T02:46:54.799Z,101700.25
2023-02-16T02:49:26.683Z,101694.16
2023-02-16T02:51:58.180Z,101698.69
2023-02-16T02:54:48.645Z,101701.72
2023-02-16T02:57:38.658Z,101696.59
2023-02-16T03:00:29.084Z,101696.59
2023-02-16T03:03:00.635Z,101690.91
2023-02-16T03:05:32.353Z,101685.09
2023-02-16T03:08:14.280Z,101688.00
2023-02-16T03:11:05.017Z,101693.22
2023-02-16T03:13:36.965Z,101689.91
2023-02-16T03:16:08.516Z,101691.84
2023-02-16T03:18:58.944Z,101685.06
2023-02-16T03:21:49.265Z,101692.53
2023-02-16T03:24:39.548Z,101686.47
2023-02-16T03:27:29.598Z,101679.53
2023-02-16T03:30:01.243Z,101684.78
2023-02-16T03:32:32.785Z,101677.75
2023-02-16T03:35:04.580Z,101693.50
2023-02-16T03:37:36.048Z,101693.50
2023-02-16T03:40:26.504Z,101691.84
2023-02-16T03:42:58.180Z,101696.94
2023-02-16T03:45:30.218Z,101691.13
2023-02-16T03:48:01.806Z,101694.72
2023-02-16T03:50:33.670Z,101686.16
2023-02-16T03:53:08.255Z,101687.94
2023-02-16T03:55:40.084Z,101693.75
2023-02-16T03:58:11.571Z,101687.69
2023-02-16T04:00:43.389Z,101696.78
2023-02-16T04:03:14.869Z,101693.31
2023-02-16T04:05:46.728Z,101692.63
2023-02-16T04:08:18.201Z,101688.59
2023-02-16T04:10:49.927Z,101686.06
2023-02-16T04:13:21.424Z,101689.31
2023-02-16T04:15:53.323Z,101689.44
2023-02-16T04:18:24.816Z,101690.50
2023-02-16T04:20:56.288Z,101697.78
2023-02-16T04:23:27.756Z,101690.75
2023-02-16T04:25:59.263Z,101679.81
2023-02-16T04:28:30.736Z,101684.09
2023-02-16T04:31:02.822Z,101682.19
2023-02-16T04:33:34.947Z,101686.03
2023-02-16T04:36:06.473Z,101682.00
2023-02-16T04:38:38.503Z,101689.75
2023-02-16T04:41:09.974Z,101689.16
2023-02-16T04:43:41.822Z,101692.75
2023-02-16T04:46:13.358Z,101689.44
2023-02-16T04:48:45.176Z,101688.47
2023-02-16T04:51:16.733Z,101688.91
2023-02-16T04:53:48.249Z,101681.19
2023-02-16T04:56:19.721Z,101680.34
2023-02-16T04:58:51.470Z,101675.34
2023-02-16T05:01:23.028Z,101677.28
2023-02-16T05:03:54.893Z,101673.97
2023-02-16T05:06:26.459Z,101677.53
2023-02-16T05:08:58.272Z,101677.53
2023-02-16T05:11:48.857Z,101676.72
2023-02-16T05:14:39.344Z,101679.91
2023-02-16T05:17:10.864Z,101684.19
2023-02-16T05:19:42.751Z,101689.44
2023-02-16T05:22:14.345Z,101686.69
2023-02-16T05:24:46.079Z,101696.91
2023-02-16T05:27:17.585Z,101703.81
2023-02-16T05:29:49.198Z,101702.72
2023-02-16T05:32:20.718Z,101701.31
2023-02-16T05:34:52.565Z,101701.19
2023-02-16T05:37:24.057Z,101695.25
2023-02-16T05:39:55.938Z,101688.47
2023-02-16T05:42:27.490Z,101688.59
2023-02-16T05:44:59.387Z,101685.28
2023-02-16T05:47:30.936Z,101681.38
2023-02-16T05:50:02.432Z,101679.72
2023-02-16T05:52:33.907Z,101691.69
2023-02-16T05:55:05.827Z,101690.94
2023-02-16T05:57:37.373Z,101697.53
2023-02-16T06:00:09.037Z,101699.19
2023-02-16T06:02:40.585Z,101698.09
2023-02-16T06:05:12.454Z,101705.00
2023-02-16T06:07:44.223Z,101708.38
2023-02-16T06:10:16.328Z,101706.19
2023-02-16T06:12:47.820Z,101705.69
2023-02-16T06:15:19.527Z,101705.41
2023-02-16T06:17:51.204Z,101709.00
2023-02-16T06:20:23.016Z,101702.09
2023-02-16T06:22:54.574Z,101708.56
2023-02-16T06:25:26.397Z,101706.19
2023-02-16T06:27:57.900Z,101712.53
2023-02-16T06:30:29.792Z,101711.00
2023-02-16T06:33:01.314Z,101703.13
2023-02-16T06:35:33.132Z,101708.59
2023-02-16T06:38:04.611Z,101716.59
2023-02-16T06:40:36.385Z,101707.19
2023-02-16T06:43:08.098Z,101709.09
2023-02-16T06:45:40.011Z,101712.19
2023-02-16T06:48:11.522Z,101712.78
2023-02-16T06:50:43.509Z,101715.72
2023-02-16T06:53:14.997Z,101712.16
2023-02-16T06:55:46.814Z,101715.34
2023-02-16T06:58:18.356Z,101717.31
2023-02-16T07:00:50.244Z,101724.28
2023-02-16T07:03:21.780Z,101725.81
2023-02-16T07:05:53.791Z,101722.81
2023-02-16T07:08:25.307Z,101726.72
2023-02-16T07:10:57.040Z,101723.44
2023-02-16T07:13:28.508Z,101730.97
2023-02-16T07:16:00.043Z,101721.56
2023-02-16T07:18:31.745Z,101725.88
2023-02-16T07:21:03.854Z,101726.03
2023-02-16T07:23:35.490Z,101716.66
2023-02-16T07:26:07.297Z,101716.38
2023-02-16T07:28:38.856Z,101722.81
2023-02-16T07:31:10.819Z,101722.94
2023-02-16T07:33:42.410Z,101715.50
2023-02-16T07:36:13.908Z,101712.03
2023-02-16T07:38:45.412Z,101705.25
2023-02-16T07:41:16.950Z,101706.38
2023-02-16T07:43:48.454Z,101710.78
2023-02-16T07:46:19.993Z,101711.47
2023-02-16T07:48:51.499Z,101714.97
2023-02-16T07:51:23.202Z,101704.75
2023-02-16T07:53:54.688Z,101700.31
2023-02-16T07:56:26.531Z,101703.22
2023-02-16T07:58:57.998Z,101705.44
2023-02-16T08:01:30.317Z,101704.84
2023-02-16T08:04:01.844Z,101709.25
2023-02-16T08:06:33.518Z,101712.38
2023-02-16T08:09:05.013Z,101720.09
2023-02-16T08:11:36.735Z,101707.66
2023-02-16T08:14:08.254Z,101709.66
2023-02-16T08:16:40.201Z,101712.91
2023-02-16T08:19:13.751Z,101713.34
2023-02-16T08:21:49.682Z,101725.28
2023-02-16T08:24:21.281Z,101727.34
2023-02-16T08:26:54.053Z,101727.63
2023-02-16T08:29:25.541Z,101731.44
2023-02-16T08:31:57.326Z,101730.03
2023-02-16T08:34:28.880Z,101723.41
2023-02-16T08:37:00.578Z,101728.38
2023-02-16T08:39:32.854Z,101721.97
2023-02-16T08:42:04.771Z,101724.16
2023-02-16T08:44:36.422Z,101727.84
2023-02-16T08:47:09.647Z,101718.94
2023-02-16T08:49:41.197Z,101715.00
2023-02-16T08:52:13.033Z,101710.44
2023-02-16T08:54:44.519Z,101712.28
2023-02-16T08:57:16.062Z,101715.75
2023-02-16T09:00:07.556Z,101708.22
2023-02-16T09:02:39.254Z,101707.13
2023-02-16T09:05:11.208Z,101706.75
2023-02-16T09:07:42.848Z,101701.28
2023-02-16T09:10:14.404Z,101707.22
2023-02-16T09:12:49.789Z,101702.50
2023-02-16T09:15:21.454Z,101704.06
2023-02-16T09:17:53.017Z,101690.47
2023-02-16T09:20:24.780Z,101700.06
2023-02-16T09:22:56.328Z,101699.13
2023-02-16T09:25:28.090Z,101702.63
2023-02-16T09:27:59.634Z,101705.28
2023-02-16T09:30:31.920Z,101697.53
2023-02-16T09:33:03.496Z,101704.66
2023-02-16T09:35:35.142Z,101701.66
2023-02-16T09:38:07.715Z,101697.00
2023-02-16T09:40:39.513Z,101693.00
2023-02-16T09:43:11.029Z,101695.09
2023-02-16T09:45:43.038Z,101699.41
2023-02-16T09:48:15.692Z,101698.50
2023-02-16T09:50:54.362Z,101714.81
2023-02-16T09:53:27.072Z,101703.38
2023-02-16T09:55:59.983Z,101695.84
2023-02-16T09:58:31.584Z,101694.19
2023-02-16T10:01:03.352Z,101695.78
2023-02-16T10:03:34.845Z,101680.78
2023-02-16T10:06:06.919Z,101690.44
2023-02-16T10:08:38.954Z,101687.25
2023-02-16T10:11:33.851Z,101690.91
2023-02-16T10:14:05.343Z,101688.50
2023-02-16T10:16:37.727Z,101693.72
2023-02-16T10:19:09.280Z,101690.88
2023-02-16T10:21:41.398Z,101689.28
2023-02-16T10:24:13.361Z,101691.94
2023-02-16T10:26:46.530Z,101696.66
2023-02-16T10:29:18.145Z,101697.09
2023-02-16T10:31:50.343Z,101694.88
2023-02-16T10:34:23.443Z,101698.41
2023-02-16T10:36:55.422Z,101693.59
2023-02-16T10:39:26.917Z,101694.97
2023-02-16T10:41:58.925Z,101691.25
2023-02-16T10:44:30.468Z,101691.81
2023-02-16T10:47:03.459Z,101680.59
2023-02-16T10:49:34.961Z,101679.50
2023-02-16T10:52:06.939Z,101678.03
2023-02-16T10:54:38.551Z,101668.72
2023-02-16T10:57:11.599Z,101670.25
2023-02-16T10:59:43.226Z,101664.00
2023-02-16T11:02:14.721Z,101660.72
2023-02-16T11:04:46.286Z,101658.25
2023-02-16T11:07:18.673Z,101665.13
2023-02-16T11:09:53.889Z,101660.31
2023-02-16T11:12:25.723Z,101648.03
2023-02-16T11:14:57.484Z,101662.34
2023-02-16T11:17:29.333Z,101654.59
2023-02-16T11:20:01.989Z,101651.66
2023-02-16T11:22:34.013Z,101658.47
2023-02-16T11:25:05.526Z,101657.09
2023-02-16T11:27:37.387Z,101650.09
2023-02-16T11:30:09.441Z,101652.50
2023-02-16T11:32:41.605Z,101641.59
2023-02-16T11:35:13.090Z,101644.72
2023-02-16T11:37:44.905Z,101638.97
2023-02-16T11:40:16.390Z,101636.31
2023-02-16T11:42:48.345Z,101635.22
2023-02-16T11:45:19.840Z,101632.16
2023-02-16T11:47:51.533Z,101635.69
2023-02-16T11:50:23.680Z,101636.09
2023-02-16T11:52:55.454Z,101631.78
2023-02-16T11:55:27.117Z,101620.91
2023-02-16T11:57:58.820Z,101621.50
2023-02-16T12:00:31.691Z,101618.84
2023-02-16T12:03:03.542Z,101613.94
2023-02-16T12:05:35.318Z,101618.44
2023-02-16T12:08:07.202Z,101616.38
2023-02-16T12:10:38.749Z,101628.28
2023-02-16T12:13:10.599Z,101607.28
2023-02-16T12:15:43.084Z,101611.22
2023-02-16T12:18:14.654Z,101608.97
2023-02-16T12:20:46.505Z,101612.47
2023-02-16T12:23:18.285Z,101608.16
2023-02-16T12:25:50.146Z,101608.78
2023-02-16T12:28:21.655Z,101602.38
2023-02-16T12:30:53.691Z,101606.53
2023-02-16T12:33:26.728Z,101601.16
2023-02-16T12:35:58.588Z,101595.00
2023-02-16T12:38:30.094Z,101589.28
2023-02-16T12:41:01.981Z,101596.81
2023-02-16T12:43:33.546Z,101596.81
2023-02-16T12:46:05.739Z,101587.16
2023-02-16T12:48:38.702Z,101582.91
2023-02-16T12:51:10.640Z,101591.06
2023-02-16T12:53:42.273Z,101589.16
2023-02-16T12:56:13.852Z,101585.53
2023-02-16T12:58:45.469Z,101593.53
2023-02-16T13:01:17.993Z,101586.38
2023-02-16T13:03:50.192Z,101585.56
2023-02-16T13:06:21.762Z,101581.84
2023-02-16T13:08:53.245Z,101572.56
2023-02-16T13:11:25.186Z,101567.63
2023-02-16T13:13:56.850Z,101555.66
2023-02-16T13:16:30.869Z,101564.09
2023-02-16T13:19:02.683Z,101554.81
2023-02-16T13:21:42.488Z,101568.00
2023-02-16T13:24:20.800Z,101558.22
2023-02-16T13:26:52.610Z,101557.78
2023-02-16T13:29:24.997Z,101554.88
2023-02-16T13:31:56.803Z,101549.25
2023-02-16T13:34:28.504Z,101554.19
2023-02-16T13:37:00.222Z,101540.31
2023-02-16T13:39:31.983Z,101544.91
2023-02-16T13:42:03.772Z,101540.41
2023-02-16T13:44:35.278Z,101539.41
2023-02-16T13:47:07.088Z,101542.66
2023-02-16T13:49:42.322Z,101544.84
2023-02-16T13:52:13.882Z,101543.72
2023-02-16T13:54:45.395Z,101548.84
2023-02-16T13:57:18.405Z,101542.66
2023-02-16T13:59:49.909Z,101547.84
2023-02-16T14:02:21.509Z,101553.38
2023-02-16T14:04:53.107Z,101556.88
2023-02-16T14:07:24.973Z,101550.53
2023-02-16T14:09:56.492Z,101544.84
2023-02-16T14:12:28.537Z,101533.69
2023-02-16T14:15:00.247Z,101534.09
2023-02-16T14:17:32.284Z,101555.28
2023-02-16T14:20:05.147Z,101544.03
2023-02-16T14:22:36.931Z,101537.91
2023-02-16T14:25:08.811Z,101538.47
2023-02-16T14:27:40.573Z,101532.94
2023-02-16T14:30:12.234Z,101538.22
2023-02-16T14:32:44.096Z,101533.97
2023-02-16T14:35:15.669Z,101541.50
2023-02-16T14:37:47.520Z,101545.63
2023-02-16T14:40:19.065Z,101551.00
2023-02-16T14:42:50.967Z,101540.44
2023-02-16T14:45:22.574Z,101540.03
2023-02-16T14:47:55.596Z,101543.59
2023-02-16T14:50:28.595Z,101541.75
2023-02-16T14:53:00.640Z,101547.53
2023-02-16T14:55:32.132Z,101544.16
2023-02-16T14:58:04.015Z,101531.19
2023-02-16T15:00:35.822Z,101536.53
2023-02-16T15:03:07.706Z,101540.06
2023-02-16T15:05:39.717Z,101539.44
2023-02-16T15:08:11.789Z,101548.88
2023-02-16T15:10:46.340Z,101537.16
2023-02-16T15:13:17.875Z,101537.81
2023-02-16T15:15:50.032Z,101543.19
2023-02-16T15:18:21.625Z,101534.34
2023-02-16T15:20:53.167Z,101544.84
2023-02-16T15:23:25.435Z,101536.84
2023-02-16T15:25:56.987Z,101536.25
2023-02-16T15:28:29.762Z,101531.72
2023-02-16T15:31:01.545Z,101538.47
2023-02-16T15:33:33.996Z,101529.66
2023-02-16T15:36:07.423Z,101529.25
2023-02-16T15:38:39.313Z,101532.97
2023-02-16T15:41:10.871Z,101536.03
2023-02-16T15:43:43.236Z,101531.28
2023-02-16T15:46:15.854Z,101523.50
2023-02-16T15:48:49.618Z,101520.19
2023-02-16T15:51:21.150Z,101514.25
2023-02-16T15:53:52.951Z,101518.38
2023-02-16T15:56:24.492Z,101513.44
2023-02-16T15:58:56.524Z,101510.78
2023-02-16T16:01:33.006Z,101510.56
2023-02-16T16:04:05.140Z,101504.78
2023-02-16T16:06:36.706Z,101505.00
2023-02-16T16:09:08.899Z,101498.22
2023-02-16T16:11:40.929Z,101494.72
2023-02-16T16:14:12.778Z,101496.94
2023-02-16T16:16:46.171Z,101494.25
2023-02-16T16:19:17.817Z,101486.44
2023-02-16T16:21:49.765Z,101489.69
2023-02-16T16:24:22.501Z,101483.69
2023-02-16T16:26:55.801Z,101491.44
2023-02-16T16:29:29.872Z,101483.63
2023-02-16T16:32:01.831Z,101491.97
2023-02-16T16:34:33.428Z,101485.94
2023-02-16T16:37:07.215Z,101489.22
2023-02-16T16:39:40.424Z,101491.84
2023-02-16T16:42:13.088Z,101484.06
2023-02-16T16:44:44.676Z,101482.78
2023-02-16T16:47:16.240Z,101478.47
2023-02-16T16:49:47.744Z,101479.44
2023-02-16T16:52:19.301Z,101478.63
2023-02-16T16:54:51.724Z,101476.50
2023-02-16T16:57:24.432Z,101478.31
2023-02-16T16:59:56.107Z,101474.59
2023-02-16T17:02:27.825Z,101470.88
2023-02-16T17:04:59.341Z,101467.59
2023-02-16T17:07:31.130Z,101464.50
2023-02-16T17:10:02.681Z,101473.06
2023-02-16T17:12:34.539Z,101466.91
2023-02-16T17:15:06.052Z,101472.44
2023-02-16T17:17:38.785Z,101468.13
2023-02-16T17:20:10.281Z,101462.72
2023-02-16T17:22:41.966Z,101466.41
2023-02-16T17:25:13.464Z,101465.59
2023-02-16T17:27:45.376Z,101467.63
2023-02-16T17:30:17.021Z,101468.19
2023-02-16T17:32:48.902Z,101471.88
2023-02-16T17:35:20.467Z,101467.91
2023-02-16T17:37:52.354Z,101467.06
2023-02-16T17:40:23.855Z,101469.09
2023-02-16T17:42:55.796Z,101473.41
2023-02-16T17:45:27.299Z,101475.00
2023-02-16T17:47:59.084Z,101480.13
2023-02-16T17:50:32.687Z,101470.25
2023-02-16T17:53:04.496Z,101483.56
2023-02-16T17:55:36.001Z,101490.91
2023-02-16T17:58:07.785Z,101494.19
2023-02-16T18:00:39.301Z,101485.38
2023-02-16T18:03:11.236Z,101490.78
2023-02-16T18:05:42.754Z,101490.00
2023-02-16T18:08:14.296Z,101485.50
2023-02-16T18:10:45.816Z,101494.75
2023-02-16T18:13:17.433Z,101493.09
2023-02-16T18:15:48.932Z,101488.59
2023-02-16T18:18:20.466Z,101477.97
2023-02-16T18:20:51.978Z,101479.81
2023-02-16T18:23:23.852Z,101484.25
2023-02-16T18:25:55.387Z,101475.63
2023-02-16T18:28:27.259Z,101484.56
2023-02-16T18:30:58.858Z,101480.06
2023-02-16T18:33:30.904Z,101488.41
2023-02-16T18:36:02.704Z,101489.59
2023-02-16T18:38:34.792Z,101491.72
2023-02-16T18:41:06.319Z,101493.56
2023-02-16T18:43:38.215Z,101484.91
2023-02-16T18:46:09.774Z,101487.78
2023-02-16T18:48:41.677Z,101483.47
2023-02-16T18:51:13.184Z,101483.22
2023-02-16T18:53:45.015Z,101485.25
2023-02-16T18:56:16.527Z,101473.34
2023-02-16T18:58:48.174Z,101479.66
2023-02-16T19:01:19.786Z,101477.19
2023-02-16T19:03:51.617Z,101475.38
2023-02-16T19:06:23.096Z,101478.84
2023-02-16T19:08:54.669Z,101478.03
2023-02-16T19:11:28.045Z,101477.00
2023-02-16T19:13:59.645Z,101466.69
2023-02-16T19:16:31.208Z,101465.25
2023-02-16T19:19:03.086Z,101468.91
2023-02-16T19:21:34.590Z,101391.66
2023-02-16T19:24:06.484Z,101466.38
2023-02-16T19:26:37.993Z,101466.53
2023-02-16T19:29:09.819Z,101473.69
2023-02-16T19:31:41.467Z,101476.63
2023-02-16T19:34:13.052Z,101474.34
2023-02-16T19:36:44.638Z,101473.97
2023-02-16T19:39:16.389Z,101477.84
2023-02-16T19:41:47.885Z,101474.34
2023-02-16T19:44:19.440Z,101479.66
2023-02-16T19:46:51.235Z,101469.84
2023-02-16T19:49:22.997Z,101470.78
2023-02-16T19:51:55.546Z,101472.03
2023-02-16T19:54:28.820Z,101470.22
2023-02-16T19:57:00.341Z,101471.69
2023-02-16T19:59:31.898Z,101459.56
2023-02-16T20:02:03.820Z,101466.47
2023-02-16T20:04:35.671Z,101464.81
2023-02-16T20:07:08.533Z,101468.31
2023-02-16T20:09:40.516Z,101457.41
2023-02-16T20:12:12.114Z,101462.81
2023-02-16T20:14:43.860Z,101470.88
2023-02-16T20:17:15.385Z,101468.59
2023-02-16T20:19:47.304Z,101471.06
2023-02-16T20:22:18.822Z,101467.22
2023-02-16T20:24:50.704Z,101462.66
2023-02-16T20:27:22.242Z,101461.47
2023-02-16T20:29:54.338Z,101463.28
2023-02-16T20:32:25.949Z,101460.63
2023-02-16T20:34:57.778Z,101455.31
2023-02-16T20:37:30.206Z,101450.66
2023-02-16T20:40:01.787Z,101447.88
2023-02-16T20:42:33.396Z,101440.28
2023-02-16T20:45:05.451Z,101446.44
2023-02-16T20:47:37.057Z,101442.13
2023-02-16T20:50:08.604Z,101444.16
2023-02-16T20:52:40.184Z,101446.53
2023-02-16T20:55:12.099Z,101444.72
2023-02-16T20:57:43.654Z,101444.16
2023-02-16T21:00:16.441Z,101450.56
2023-02-16T21:02:47.973Z,101447.81
2023-02-16T21:05:19.508Z,101442.06
2023-02-16T21:07:51.041Z,101434.09
2023-02-16T21:10:22.860Z,101429.91
2023-02-16T21:12:54.370Z,101430.28
2023-02-16T21:15:26.116Z,101431.53
2023-02-16T21:17:57.663Z,101434.69
2023-02-16T21:20:29.318Z,101425.44
2023-02-16T21:23:03.454Z,101427.53
2023-02-16T21:25:35.194Z,101429.81
2023-02-16T21:28:06.768Z,101428.00
2023-02-16T21:30:38.593Z,101423.50
2023-02-16T21:33:10.561Z,101416.75
2023-02-16T21:35:42.103Z,101422.41
2023-02-16T21:38:13.672Z,101419.13
2023-02-16T21:41:04.227Z,101419.56
2023-02-16T21:43:36.006Z,101415.72
2023-02-16T21:46:08.600Z,101417.28
2023-02-16T21:48:50.527Z,101411.97
2023-02-16T21:51:22.095Z,101414.28
2023-02-16T21:53:53.617Z,101401.63
2023-02-16T21:56:25.146Z,101396.97
2023-02-16T21:58:56.968Z,101399.06
2023-02-16T22:01:28.534Z,101386.81
2023-02-16T22:04:00.523Z,101378.84
2023-02-16T22:06:35.016Z,101373.53
2023-02-16T22:09:06.889Z,101374.72
2023-02-16T22:11:38.418Z,101382.97
2023-02-16T22:14:10.249Z,101380.50
2023-02-16T22:16:41.801Z,101378.47
2023-02-16T22:19:13.362Z,101378.22
2023-02-16T22:21:44.900Z,101370.34
2023-02-16T22:24:17.002Z,101366.88
2023-02-16T22:26:48.560Z,101369.34
2023-02-16T22:29:20.155Z,101372.38
2023-02-16T22:31:51.697Z,101369.34
2023-02-16T22:34:23.350Z,101369.06
2023-02-16T22:36:54.892Z,101369.16
2023-02-16T22:39:26.690Z,101356.53
2023-02-16T22:41:58.221Z,101354.53
2023-02-16T22:44:30.113Z,101362.50
2023-02-16T22:47:01.709Z,101356.19
2023-02-16T22:49:33.257Z,101356.19
2023-02-16T22:52:04.782Z,101368.06
2023-02-16T22:54:36.534Z,101092.28
2023-02-16T22:57:08.063Z,101359.47
2023-02-16T22:59:39.600Z,101360.09
2023-02-16T23:02:11.137Z,101361.28
2023-02-16T23:04:43.381Z,101359.09
2023-02-16T23:07:15.018Z,101356.19
2023-02-16T23:09:46.695Z,101348.47
2023-02-16T23:12:18.787Z,101351.88
2023-02-16T23:14:50.554Z,101347.94
2023-02-16T23:17:22.081Z,101344.94
2023-02-16T23:19:53.631Z,101340.63
2023-02-16T23:22:25.138Z,101337.34
2023-02-16T23:25:15.367Z,101337.34
2023-02-16T23:27:46.854Z,101336.34
2023-02-16T23:30:18.479Z,101340.25
2023-02-16T23:32:50.031Z,101338.16
2023-02-16T23:35:21.633Z,101338.78
2023-02-16T23:37:53.142Z,101322.44
2023-02-16T23:40:24.831Z,101329.00
2023-02-16T23:42:56.397Z,101332.56
2023-02-16T23:45:28.314Z,101332.03
2023-02-16T23:47:59.828Z,101335.31
2023-02-16T23:50:31.338Z,101333.13
2023-02-16T23:53:02.886Z,101330.28
2023-02-16T23:55:34.715Z,101331.75
2023-02-16T23:58:06.238Z,101335.41
